Time;durP1;ratioP1;P1;durP2;ratioP2;P2;SDS_P1;SDS_P2;PMS_P1;PMS_P2;Temp;Humidity;BMP_temperature;BMP_pressure;BME280_temperature;BME280_humidity;BME280_pressure;Samples;Min_cycle;Max_cycle;Signal;HPM_P1;HPM_P2
2021/06/08 00:00:44;;;;;;;26.23;17.83;;;;;;;13.97;91.62;101618.58;126339;1092;62948;-77
2021/06/08 00:03:11;;;;;;;24.03;16.87;;;;;;;13.97;91.76;101626.58;126351;1093;62938;-77
2021/06/08 00:05:38;;;;;;;23.80;16.40;;;;;;;13.96;91.73;101617.75;126332;1093;62399;-78
2021/06/08 00:08:06;;;;;;;24.17;17.57;;;;;;;13.96;91.91;101616.89;126349;1093;62743;-77
2021/06/08 00:10:33;;;;;;;23.93;16.53;;;;;;;13.96;92.20;101624.90;126396;1093;62858;-78
2021/06/08 00:13:00;;;;;;;23.97;16.17;;;;;;;13.96;91.79;101622.23;126386;1092;62165;-77
2021/06/08 00:15:27;;;;;;;25.43;16.93;;;;;;;13.96;92.07;101619.56;126022;1092;62525;-79
2021/06/08 00:17:54;;;;;;;23.87;15.67;;;;;;;13.97;91.86;101618.58;126290;1093;62986;-77
2021/06/08 00:20:21;;;;;;;21.43;15.70;;;;;;;13.98;92.25;101620.22;126391;1093;62775;-78
2021/06/08 00:22:48;;;;;;;23.27;16.20;;;;;;;14.01;92.29;101614.55;126315;1093;63468;-78
2021/06/08 00:25:16;;;;;;;23.75;15.45;;;;;;;14.02;91.99;101610.86;126434;1093;62078;-78
2021/06/08 00:27:43;;;;;;;22.33;15.67;;;;;;;14.06;92.17;101615.66;125961;1092;62996;-79
2021/06/08 00:30:11;;;;;;;23.20;15.23;;;;;;;14.11;92.48;101615.17;126251;1093;62489;-78
2021/06/08 00:32:39;;;;;;;24.90;15.33;;;;;;;14.13;91.75;101607.82;125994;1093;63433;-77
2021/06/08 00:35:07;;;;;;;21.60;14.87;;;;;;;14.14;91.85;101617.47;126267;1093;63068;-77
2021/06/08 00:37:36;;;;;;;24.27;15.93;;;;;;;14.13;91.95;101613.16;126484;1093;62896;-77
2021/06/08 00:40:05;;;;;;;24.37;16.70;;;;;;;14.17;92.03;101608.28;126509;1093;62537;-78
2021/06/08 00:42:37;;;;;;;23.47;15.80;;;;;;;14.17;91.82;101601.09;126009;1092;62556;-79
2021/06/08 00:45:05;;;;;;;23.17;14.63;;;;;;;14.19;91.85;101606.27;126409;1093;64786;-79
2021/06/08 00:47:33;;;;;;;22.55;14.95;;;;;;;14.20;91.89;101605.27;126483;1093;62910;-80
2021/06/08 00:50:00;;;;;;;25.43;16.17;;;;;;;14.19;91.38;101604.42;126753;1092;62104;-78
2021/06/08 00:52:27;;;;;;;24.83;15.93;;;;;;;14.19;91.75;101599.08;126832;1092;62769;-78
2021/06/08 00:54:54;;;;;;;24.03;14.80;;;;;;;14.19;91.42;101593.74;126376;1092;62952;-79
2021/06/08 00:57:21;;;;;;;21.75;15.50;;;;;;;14.18;91.04;101589.43;126780;1093;63115;-78
2021/06/08 00:59:48;;;;;;;19.83;14.00;;;;;;;14.18;91.41;101594.77;126123;1093;64578;-78
2021/06/08 01:02:16;;;;;;;19.47;13.93;;;;;;;14.16;90.98;101593.28;126172;1093;62184;-78
2021/06/08 01:04:43;;;;;;;22.43;14.10;;;;;;;14.12;91.39;101595.47;126653;1093;63674;-79
2021/06/08 01:07:10;;;;;;;22.50;15.20;;;;;;;14.09;91.14;101585.16;126591;1093;62365;-78
2021/06/08 01:09:37;;;;;;;20.40;14.57;;;;;;;14.06;91.25;101580.16;126728;1093;63038;-79
2021/06/08 01:12:05;;;;;;;23.70;14.87;;;;;;;14.04;91.77;101574.17;126227;1093;64626;-80
2021/06/08 01:14:32;;;;;;;20.47;14.17;;;;;;;14.02;91.29;101573.52;126536;1093;63690;-78
2021/06/08 01:16:59;;;;;;;27.00;15.50;;;;;;;14.00;91.77;101575.52;126463;1092;62797;-78
2021/06/08 01:19:26;;;;;;;20.77;14.90;;;;;;;13.99;91.60;101573.88;126522;1093;63008;-80
2021/06/08 01:21:53;;;;;;;21.10;14.53;;;;;;;13.99;91.97;101572.03;126952;1093;63530;-79
2021/06/08 01:24:20;;;;;;;19.13;14.63;;;;;;;14.00;92.01;101576.34;127999;1091;62808;-79
2021/06/08 01:26:48;;;;;;;21.60;13.90;;;;;;;13.98;91.52;101575.72;127901;1093;62897;-78
2021/06/08 01:29:18;;;;;;;21.10;14.63;;;;;;;13.98;91.94;101585.54;127801;1093;62881;-79
2021/06/08 01:31:46;;;;;;;22.30;14.20;;;;;;;13.95;91.44;101577.91;126911;1093;63068;-79
2021/06/08 01:34:15;;;;;;;22.33;15.17;;;;;;;13.90;91.54;101583.77;126639;1093;62197;-79
2021/06/08 01:36:43;;;;;;;20.60;16.07;;;;;;;13.85;91.55;101570.93;126448;1093;62938;-79
2021/06/08 01:39:10;;;;;;;23.37;15.63;;;;;;;13.82;91.90;101587.30;126283;1093;63033;-78
2021/06/08 01:41:38;;;;;;;24.03;16.40;;;;;;;13.78;91.93;101582.49;126490;1093;63623;-80
2021/06/08 01:44:05;;;;;;;25.17;15.60;;;;;;;13.71;91.80;101577.03;126326;1093;63026;-79
2021/06/08 01:46:32;;;;;;;24.70;16.00;;;;;;;13.69;92.10;101576.37;126544;1093;64437;-79
2021/06/08 01:49:00;;;;;;;23.70;16.23;;;;;;;13.65;92.39;101583.88;126540;1093;62999;-79
2021/06/08 01:51:50;;;;;;;26.27;15.93;;;;;;;13.65;92.42;101583.05;126275;1093;63426;-78
2021/06/08 01:54:33;;;;;;;21.90;15.60;;;;;;;13.64;92.96;101586.70;126311;1093;62935;-77
2021/06/08 01:57:35;;;;;;;22.43;14.93;;;;;;;13.63;92.57;101579.73;126288;1092;62865;-77
2021/06/08 02:00:09;;;;;;;24.17;15.30;;;;;;;13.62;92.84;101583.38;126283;1093;62500;-78
2021/06/08 02:02:39;;;;;;;20.00;13.57;;;;;;;13.60;92.89;101580.05;126402;1093;62935;-78
2021/06/08 02:05:29;;;;;;;21.03;14.43;;;;;;;13.58;93.69;101579.39;126268;1093;63012;-78
2021/06/08 02:08:13;;;;;;;20.97;14.70;;;;;;;13.60;93.93;101585.39;126263;1093;62181;-79
2021/06/08 02:10:49;;;;;;;20.13;14.10;;;;;;;13.61;93.76;101582.55;126851;1093;63019;-79
2021/06/08 02:13:41;;;;;;;19.87;13.63;;;;;;;13.66;93.48;101584.70;126376;1093;62270;-80
2021/06/08 02:16:31;;;;;;;19.70;14.27;;;;;;;13.72;93.57;101578.67;126623;1093;63044;-80
2021/06/08 02:18:58;;;;;;;22.83;13.33;;;;;;;13.78;93.45;101577.98;126493;1093;63142;-79
2021/06/08 02:21:31;;;;;;;22.63;14.20;;;;;;;13.84;93.46;101571.13;126733;1092;62874;-78
2021/06/08 02:24:01;;;;;;;21.00;13.30;;;;;;;13.90;93.41;101574.91;126699;1093;63128;-79
2021/06/08 02:26:31;;;;;;;18.67;13.70;;;;;;;13.96;93.13;101579.55;126537;1093;62938;-79
2021/06/08 02:29:00;;;;;;;19.67;13.70;;;;;;;14.03;93.55;101580.53;126698;1093;62955;-78
2021/06/08 02:31:29;;;;;;;18.87;13.20;;;;;;;14.10;93.23;101586.81;126801;1092;62894;-79
2021/06/08 02:33:57;;;;;;;19.17;12.73;;;;;;;14.15;92.79;101579.09;126755;1092;62509;-79
2021/06/08 02:36:25;;;;;;;20.77;13.67;;;;;;;14.19;92.89;101575.06;126431;1093;63352;-78
2021/06/08 02:38:54;;;;;;;19.00;13.57;;;;;;;14.24;92.61;101582.56;126151;1093;63273;-79
2021/06/08 02:41:23;;;;;;;20.63;13.47;;;;;;;14.26;92.44;101581.38;126506;1093;62779;-79
2021/06/08 02:43:52;;;;;;;19.77;11.50;;;;;;;14.27;92.15;101585.69;126327;1093;64472;-77
2021/06/08 02:46:23;;;;;;;13.55;9.70;;;;;;;14.27;92.61;101571.52;126268;1093;62942;-77
2021/06/08 02:48:54;;;;;;;13.50;9.77;;;;;;;14.25;92.15;101576.20;126407;1092;62811;-77
2021/06/08 02:51:22;;;;;;;18.17;12.43;;;;;;;14.21;92.66;101577.56;126536;1093;63082;-78
2021/06/08 02:53:53;;;;;;;16.47;10.97;;;;;;;14.19;92.50;101575.06;127683;1093;62383;-79
2021/06/08 02:56:21;;;;;;;14.03;9.47;;;;;;;14.20;92.50;101586.59;126492;1093;63063;-79
2021/06/08 02:58:49;;;;;;;18.40;12.53;;;;;;;14.20;92.22;101589.27;126872;1093;62966;-79
2021/06/08 03:01:19;;;;;;;16.50;11.95;;;;;;;14.21;92.43;101594.40;126807;1093;63731;-79
2021/06/08 03:03:57;;;;;;;15.93;11.60;;;;;;;14.24;92.29;101580.72;126787;1093;62127;-79
2021/06/08 03:06:27;;;;;;;17.90;12.73;;;;;;;14.12;91.99;101563.45;126484;1093;62983;-80
2021/06/08 03:08:59;;;;;;;19.37;12.50;;;;;;;14.31;92.45;101593.36;126816;1093;62668;-80
2021/06/08 03:11:37;;;;;;;15.90;12.20;;;;;;;14.33;91.64;101591.34;126764;1093;63218;-79
2021/06/08 03:14:11;;;;;;;17.13;11.93;;;;;;;14.34;91.59;101604.48;126769;1093;62200;-78
2021/06/08 03:16:49;;;;;;;12.40;9.70;;;;;;;14.33;91.41;101592.17;126621;1093;62528;-78
2021/06/08 03:19:20;;;;;;;12.57;10.13;;;;;;;14.34;91.40;101584.98;126343;1093;63012;-79
2021/06/08 03:21:51;;;;;;;14.40;9.63;;;;;;;14.35;91.59;101590.16;126373;1093;62106;-79
2021/06/08 03:24:20;;;;;;;16.43;11.87;;;;;;;14.38;91.98;101594.30;126656;1093;62704;-79
2021/06/08 03:26:49;;;;;;;15.93;11.50;;;;;;;14.41;91.74;101599.30;126627;1092;62572;-79
2021/06/08 03:29:18;;;;;;;15.53;11.50;;;;;;;14.43;91.54;101598.11;126309;1093;62278;-80
2021/06/08 03:31:46;;;;;;;16.47;11.40;;;;;;;14.47;91.48;101602.08;126456;1093;62928;-79
2021/06/08 03:34:16;;;;;;;15.43;10.50;;;;;;;14.47;91.35;101596.74;126057;1093;64367;-78
2021/06/08 03:36:53;;;;;;;16.17;12.20;;;;;;;14.49;91.17;101601.88;126554;1093;63556;-79
2021/06/08 03:39:22;;;;;;;15.13;10.47;;;;;;;14.49;91.42;101601.88;126278;1093;62830;-79
2021/06/08 03:41:50;;;;;;;13.93;10.53;;;;;;;14.46;91.10;101591.57;126347;1093;62973;-79
2021/06/08 03:44:20;;;;;;;15.43;10.17;;;;;;;14.46;91.32;101596.91;127630;1093;62085;-79
2021/06/08 03:46:49;;;;;;;14.37;10.90;;;;;;;14.45;91.38;101597.91;126963;1093;63045;-78
2021/06/08 03:49:20;;;;;;;14.40;10.67;;;;;;;14.45;91.25;101603.24;126478;1092;62948;-79
2021/06/08 03:51:53;;;;;;;14.70;9.40;;;;;;;14.43;91.46;101608.78;126555;1093;63086;-80
2021/06/08 03:54:21;;;;;;;13.27;7.90;;;;;;;14.43;91.12;101607.95;126482;1091;63632;-79
2021/06/08 03:56:52;;;;;;;15.07;9.93;;;;;;;14.41;91.13;101600.13;126610;1093;64452;-78
2021/06/08 03:59:23;;;;;;;17.57;10.13;;;;;;;14.42;91.37;101600.94;126248;1092;62289;-77
2021/06/08 04:01:52;;;;;;;12.87;8.10;;;;;;;14.43;91.47;101602.63;126285;1092;62316;-77
2021/06/08 04:04:20;;;;;;;22.77;10.17;;;;;;;14.47;91.30;101596.74;126189;1093;62654;-76
2021/06/08 04:06:49;;;;;;;13.73;9.67;;;;;;;14.54;91.06;101609.38;126302;1092;63103;-76
2021/06/08 04:09:16;;;;;;;14.63;10.43;;;;;;;14.58;90.82;101598.19;126422;1093;62929;-78
2021/06/08 04:11:47;;;;;;;16.37;9.43;;;;;;;14.58;90.87;101598.19;126251;1093;62210;-77
2021/06/08 04:14:21;;;;;;;14.90;8.00;;;;;;;14.60;90.94;101598.84;126366;1093;63412;-77
2021/06/08 04:16:48;;;;;;;17.30;10.63;;;;;;;14.62;91.35;101596.83;126320;1093;62865;-77
2021/06/08 04:19:18;;;;;;;15.73;9.53;;;;;;;14.65;90.74;101596.45;126424;1093;63476;-78
2021/06/08 04:21:49;;;;;;;22.10;11.00;;;;;;;14.67;90.46;101597.10;126480;1093;62094;-77
2021/06/08 04:24:17;;;;;;;14.27;9.73;;;;;;;14.68;90.63;101593.44;126233;1093;63103;-78
2021/06/08 04:26:44;;;;;;;13.20;7.60;;;;;;;14.71;90.41;101602.10;126283;1093;63017;-77
2021/06/08 04:29:11;;;;;;;16.03;9.70;;;;;;;14.72;90.43;101595.73;126293;1093;64472;-77
2021/06/08 04:31:39;;;;;;;14.97;9.37;;;;;;;14.76;90.54;101597.86;126265;1093;62352;-77
2021/06/08 04:34:06;;;;;;;19.63;11.00;;;;;;;14.81;90.53;101598.16;126456;1093;62860;-77
2021/06/08 04:36:34;;;;;;;17.33;9.80;;;;;;;14.86;89.89;101594.95;126284;1093;63028;-77
2021/06/08 04:39:01;;;;;;;19.10;11.60;;;;;;;14.89;89.75;101602.58;126316;1093;63200;-78
2021/06/08 04:41:28;;;;;;;19.37;10.13;;;;;;;14.91;89.77;101597.07;126295;1092;63294;-77
2021/06/08 04:43:55;;;;;;;21.97;13.07;;;;;;;14.95;89.82;101601.04;126179;1093;63021;-77
2021/06/08 04:46:22;;;;;;;18.23;12.13;;;;;;;14.95;89.76;101599.19;126218;1093;62954;-78
2021/06/08 04:48:49;;;;;;;20.30;14.00;;;;;;;14.98;89.80;101603.33;126339;1092;62221;-79
2021/06/08 04:51:16;;;;;;;21.23;13.13;;;;;;;15.01;89.42;101601.14;126362;1093;62897;-79
2021/06/08 04:53:43;;;;;;;22.70;11.93;;;;;;;15.07;89.44;101604.94;126373;1093;63028;-78
2021/06/08 04:56:10;;;;;;;22.53;12.43;;;;;;;15.11;88.98;101594.69;126335;1093;63543;-79
2021/06/08 04:58:38;;;;;;;20.15;11.60;;;;;;;15.12;88.82;101604.39;126443;1092;62929;-79
2021/06/08 05:01:24;;;;;;;17.57;12.20;;;;;;;15.11;88.91;101600.03;126410;1092;62223;-79
2021/06/08 05:03:59;;;;;;;18.93;10.90;;;;;;;15.13;88.56;101601.54;126372;1093;63518;-78
2021/06/08 05:06:31;;;;;;;18.98;11.58;;;;;;;15.22;88.68;101607.63;126439;1093;63032;-78
2021/06/08 05:09:04;;;;;;;17.10;12.93;;;;;;;15.27;88.72;101603.38;126356;1093;62210;-77
2021/06/08 05:11:42;;;;;;;26.03;14.53;;;;;;;15.35;88.51;101607.81;126514;1093;63012;-80
2021/06/08 05:14:12;;;;;;;21.17;12.20;;;;;;;15.44;88.23;101604.02;126690;1093;63000;-79
2021/06/08 05:16:42;;;;;;;19.47;11.30;;;;;;;15.52;87.52;101607.63;126748;1093;64217;-79
2021/06/08 05:19:11;;;;;;;21.57;11.67;;;;;;;15.55;87.63;101604.57;126340;1093;63253;-76
2021/06/08 05:21:40;;;;;;;21.03;14.17;;;;;;;15.58;86.92;101612.24;126169;1093;62390;-75
2021/06/08 05:24:10;;;;;;;19.27;11.10;;;;;;;15.60;87.00;101612.89;126573;1093;62936;-73
2021/06/08 05:26:41;;;;;;;22.67;13.63;;;;;;;15.66;87.22;101620.14;126315;1093;62782;-78
2021/06/08 05:29:10;;;;;;;23.63;14.40;;;;;;;15.70;86.80;101616.94;126295;1093;63042;-75
2021/06/08 05:31:37;;;;;;;25.40;15.23;;;;;;;15.74;86.91;101614.73;126387;1093;64474;-75
2021/06/08 05:34:04;;;;;;;26.80;14.37;;;;;;;15.79;86.97;101623.04;126149;1092;62762;-75
2021/06/08 05:36:33;;;;;;;22.47;13.73;;;;;;;15.86;86.79;101615.91;126206;1093;62954;-75
2021/06/08 05:39:01;;;;;;;24.80;15.20;;;;;;;15.95;86.81;101613.13;126390;1093;62822;-74
2021/06/08 05:41:28;;;;;;;25.53;14.07;;;;;;;16.05;86.50;101619.02;126003;1093;62162;-75
2021/06/08 05:43:56;;;;;;;21.30;13.03;;;;;;;16.10;85.94;101616.59;126309;1093;62960;-74
2021/06/08 05:46:28;;;;;;;23.30;13.43;;;;;;;16.14;85.75;101617.88;126235;1093;62308;-75
2021/06/08 05:48:55;;;;;;;19.33;9.80;;;;;;;16.13;85.10;101626.09;126218;1093;63068;-74
2021/06/08 05:51:23;;;;;;;24.70;13.90;;;;;;;16.09;85.11;101625.66;125968;1092;63323;-74
2021/06/08 05:53:51;;;;;;;20.73;12.50;;;;;;;16.06;85.47;101626.02;126092;1092;63170;-74
2021/06/08 05:56:18;;;;;;;25.63;14.23;;;;;;;16.03;85.20;101631.76;126259;1093;62216;-74
2021/06/08 05:58:45;;;;;;;14.15;9.20;;;;;;;16.02;85.27;101627.41;126247;1093;63645;-75
2021/06/08 06:01:12;;;;;;;14.27;8.53;;;;;;;15.99;85.52;101625.13;126179;1093;63006;-75
2021/06/08 06:03:42;;;;;;;18.03;9.57;;;;;;;15.99;85.36;101625.13;126253;1093;62819;-74
2021/06/08 06:06:11;;;;;;;21.17;12.87;;;;;;;16.02;86.02;101632.77;126221;1093;63022;-75
2021/06/08 06:08:38;;;;;;;22.00;13.67;;;;;;;16.03;85.08;101631.76;126213;1093;62704;-75
2021/06/08 06:11:08;;;;;;;18.40;11.30;;;;;;;16.01;84.97;101639.15;126188;1093;63743;-75
2021/06/08 06:13:43;;;;;;;21.50;14.47;;;;;;;15.97;85.59;101630.66;126390;1093;62954;-76
2021/06/08 06:16:11;;;;;;;25.27;14.00;;;;;;;16.02;86.02;101635.44;126351;1093;62020;-77
2021/06/08 06:18:39;;;;;;;21.20;11.60;;;;;;;16.11;85.85;101639.69;126261;1092;62951;-77
2021/06/08 06:21:07;;;;;;;27.67;13.93;;;;;;;16.20;85.54;101635.86;126296;1093;62952;-77
2021/06/08 06:23:34;;;;;;;20.23;12.47;;;;;;;16.22;85.21;101641.86;126454;1093;63006;-76
2021/06/08 06:26:02;;;;;;;22.27;12.20;;;;;;;16.33;85.40;101637.03;126353;1093;62034;-77
2021/06/08 06:28:30;;;;;;;19.33;13.17;;;;;;;16.39;84.53;101633.59;126153;1093;62994;-78
2021/06/08 06:30:57;;;;;;;20.13;10.53;;;;;;;16.39;84.22;101636.28;126012;1093;62968;-77
2021/06/08 06:33:25;;;;;;;26.57;14.87;;;;;;;16.42;84.48;101635.88;126379;1093;62941;-77
2021/06/08 06:35:57;;;;;;;18.50;11.73;;;;;;;16.44;84.29;101629.31;126056;1093;62957;-78
2021/06/08 06:38:26;;;;;;;31.17;15.17;;;;;;;16.51;84.44;101638.26;126501;1093;62900;-77
2021/06/08 06:40:53;;;;;;;20.53;11.43;;;;;;;16.60;83.75;101638.95;126374;1093;62193;-76
2021/06/08 06:43:25;;;;;;;18.53;12.00;;;;;;;16.64;83.60;101634.88;126132;1093;63505;-76
2021/06/08 06:45:53;;;;;;;22.75;12.75;;;;;;;16.69;83.50;101636.97;126371;1093;63009;-76
2021/06/08 06:48:21;;;;;;;20.43;11.43;;;;;;;16.63;82.87;101635.06;126460;1093;62893;-77
2021/06/08 06:50:51;;;;;;;26.43;15.07;;;;;;;16.61;83.00;101634.42;126417;1093;62961;-76
2021/06/08 06:53:20;;;;;;;23.93;13.20;;;;;;;16.67;83.43;101633.66;126447;1093;62899;-77
2021/06/08 06:55:52;;;;;;;26.13;16.03;;;;;;;16.76;83.26;101637.03;126398;1093;62671;-77
2021/06/08 06:58:20;;;;;;;28.87;16.57;;;;;;;16.84;83.33;101639.61;126376;1093;62347;-76
2021/06/08 07:00:49;;;;;;;25.90;12.93;;;;;;;16.93;83.03;101645.66;126349;1092;62993;-76
2021/06/08 07:03:23;;;;;;;22.67;14.77;;;;;;;17.01;82.41;101645.52;126412;1093;62923;-74
2021/06/08 07:05:51;;;;;;;20.30;12.60;;;;;;;17.07;81.93;101644.75;126345;1093;62220;-77
2021/06/08 07:08:23;;;;;;;27.80;14.10;;;;;;;17.11;82.20;101646.84;126117;1093;63345;-77
2021/06/08 07:10:55;;;;;;;28.10;17.50;;;;;;;17.19;81.63;101642.34;126410;1093;62938;-76
2021/06/08 07:13:23;;;;;;;24.07;14.53;;;;;;;17.25;81.65;101646.92;126403;1092;63112;-78
2021/06/08 07:15:54;;;;;;;24.80;14.27;;;;;;;17.33;81.36;101650.28;126321;1093;63012;-77
2021/06/08 07:18:21;;;;;;;27.73;17.30;;;;;;;17.42;80.82;101652.81;126396;1093;62997;-75
2021/06/08 07:20:49;;;;;;;28.30;17.37;;;;;;;17.51;80.96;101651.62;126140;1093;63695;-75
2021/06/08 07:23:20;;;;;;;30.00;16.70;;;;;;;17.65;80.70;101655.22;126364;1093;63022;-76
2021/06/08 07:25:51;;;;;;;25.37;16.67;;;;;;;17.84;80.12;101651.02;126201;1093;64146;-77
2021/06/08 07:28:19;;;;;;;24.33;15.30;;;;;;;18.02;79.81;101653.14;126332;1093;62296;-76
2021/06/08 07:30:49;;;;;;;30.63;15.63;;;;;;;18.22;78.65;101653.22;126957;1093;64459;-77
2021/06/08 07:33:27;;;;;;;27.80;15.57;;;;;;;18.37;78.57;101650.37;126466;1093;62458;-76
2021/06/08 07:36:16;;;;;;;23.33;13.43;;;;;;;18.49;77.21;101648.75;125976;1093;62887;-76
2021/06/08 07:39:00;;;;;;;23.83;14.23;;;;;;;18.56;76.78;101654.95;127896;1093;62153;-75
2021/06/08 07:41:39;;;;;;;19.93;13.03;;;;;;;18.63;76.18;101650.40;126402;1092;64469;-77
2021/06/08 07:44:22;;;;;;;22.53;14.87;;;;;;;18.63;76.05;101647.70;126186;1093;64163;-77
2021/06/08 07:46:52;;;;;;;23.47;13.67;;;;;;;18.65;76.03;101648.33;126397;1092;63675;-78
2021/06/08 07:49:22;;;;;;;23.33;16.10;;;;;;;18.73;76.08;101655.38;126347;1093;63143;-78
2021/06/08 07:51:50;;;;;;;20.30;11.93;;;;;;;18.83;75.92;101650.46;126991;1093;63912;-78
2021/06/08 07:54:20;;;;;;;24.20;15.20;;;;;;;18.98;75.62;101646.72;126065;1093;62977;-77
2021/06/08 07:56:48;;;;;;;24.10;14.00;;;;;;;19.03;74.51;101650.45;126499;1093;62200;-76
2021/06/08 07:59:16;;;;;;;34.50;19.57;;;;;;;19.12;75.10;101659.13;126361;1093;62938;-78
2021/06/08 08:01:44;;;;;;;21.87;14.83;;;;;;;19.20;73.80;101655.41;126366;1093;62894;-78
2021/06/08 08:04:18;;;;;;;27.77;17.77;;;;;;;19.17;73.88;101655.81;126526;1092;62964;-74
2021/06/08 08:06:52;;;;;;;31.87;17.83;;;;;;;19.23;73.94;101661.20;126385;1093;62954;-79
2021/06/08 08:09:20;;;;;;;26.73;15.70;;;;;;;19.31;73.97;101654.77;126729;1093;62191;-80
2021/06/08 08:11:52;;;;;;;31.13;18.90;;;;;;;19.39;73.63;101659.11;126355;1093;62207;-79
2021/06/08 08:14:24;;;;;;;25.47;15.77;;;;;;;19.49;72.93;101657.63;126626;1092;63126;-80
2021/06/08 08:16:54;;;;;;;27.23;14.90;;;;;;;19.58;72.91;101660.10;126614;1093;63005;-78
2021/06/08 08:19:23;;;;;;;23.53;15.23;;;;;;;19.59;71.50;101661.74;126361;1093;62979;-77
2021/06/08 08:21:51;;;;;;;32.07;20.10;;;;;;;19.69;72.05;101660.26;126459;1093;62776;-77
2021/06/08 08:24:18;;;;;;;28.30;17.27;;;;;;;19.70;71.13;101666.49;126370;1093;64076;-77
2021/06/08 08:26:46;;;;;;;37.77;20.80;;;;;;;19.68;71.69;101660.49;126176;1093;62631;-77
2021/06/08 08:29:13;;;;;;;31.97;19.93;;;;;;;19.81;71.89;101663.16;126147;1093;64472;-77
2021/06/08 08:31:40;;;;;;;31.80;20.17;;;;;;;20.00;72.27;101655.20;126359;1093;64456;-77
2021/06/08 08:34:07;;;;;;;36.67;23.27;;;;;;;20.13;71.00;101666.75;126409;1093;63077;-74
2021/06/08 08:36:37;;;;;;;28.97;20.33;;;;;;;20.36;71.14;101660.01;126248;1093;63006;-75
2021/06/08 08:39:07;;;;;;;36.53;23.23;;;;;;;20.49;69.82;101653.70;126371;1093;63118;-77
2021/06/08 08:41:35;;;;;;;25.43;18.33;;;;;;;20.59;68.65;101654.06;126767;1093;63959;-80
2021/06/08 08:44:03;;;;;;;30.27;20.40;;;;;;;20.65;68.99;101658.58;126340;1093;63469;-76
2021/06/08 08:46:30;;;;;;;29.33;19.67;;;;;;;20.65;68.16;101657.77;126344;1093;62900;-78
2021/06/08 08:48:58;;;;;;;26.77;17.93;;;;;;;20.63;67.87;101662.55;126121;1093;62900;-78
2021/06/08 08:51:28;;;;;;;37.47;23.57;;;;;;;20.68;68.88;101657.34;126770;1092;62220;-77
2021/06/08 08:53:58;;;;;;;36.30;23.77;;;;;;;20.85;68.31;101657.63;126249;1093;62602;-77
2021/06/08 08:56:32;;;;;;;31.03;23.30;;;;;;;21.04;67.62;101655.78;126311;1093;63041;-76
2021/06/08 08:59:09;;;;;;;37.57;23.53;;;;;;;21.19;66.28;101650.89;126252;1093;62283;-77
2021/06/08 09:01:40;;;;;;;41.53;23.07;;;;;;;21.26;66.62;101648.94;126457;1093;62935;-77
2021/06/08 09:04:09;;;;;;;32.43;21.00;;;;;;;21.26;65.52;101648.94;126489;1093;63073;-78
2021/06/08 09:06:37;;;;;;;30.13;19.53;;;;;;;21.31;65.44;101651.78;126279;1093;62981;-78
2021/06/08 09:09:10;;;;;;;28.37;19.10;;;;;;;21.25;64.99;101649.16;126564;1093;62900;-78
2021/06/08 09:11:41;;;;;;;30.90;21.10;;;;;;;21.17;65.34;101655.69;126397;1093;62956;-77
2021/06/08 09:14:11;;;;;;;36.87;19.13;;;;;;;21.18;65.79;101647.34;126707;1093;62938;-77
2021/06/08 09:16:39;;;;;;;32.07;19.07;;;;;;;21.33;65.44;101656.97;126531;1093;62434;-77
2021/06/08 09:19:09;;;;;;;38.00;20.93;;;;;;;21.49;65.12;101647.51;126722;1092;62753;-77
2021/06/08 09:21:39;;;;;;;35.27;22.97;;;;;;;21.68;64.09;101646.45;126839;1093;62955;-77
2021/06/08 09:24:27;;;;;;;33.57;21.93;;;;;;;21.79;62.91;101647.56;126929;1092;62768;-77
2021/06/08 09:27:01;;;;;;;27.80;19.10;;;;;;;21.93;63.22;101643.66;126985;1093;62277;-77
2021/06/08 09:29:30;;;;;;;26.37;19.10;;;;;;;22.03;62.33;101650.39;126715;1093;62200;-78
2021/06/08 09:32:21;;;;;;;24.60;17.40;;;;;;;22.14;63.01;101645.05;126995;1093;63012;-76
2021/06/08 09:35:03;;;;;;;29.87;21.00;;;;;;;22.20;62.77;101651.39;128120;1093;61874;-77
2021/06/08 09:37:41;;;;;;;30.20;20.87;;;;;;;22.25;61.22;101642.63;126869;1093;64507;-78
2021/06/08 09:40:22;;;;;;;25.57;18.83;;;;;;;22.14;61.69;101639.64;127025;1093;63072;-77
2021/06/08 09:43:11;;;;;;;26.30;16.93;;;;;;;21.97;61.91;101639.45;126786;1093;62336;-76
2021/06/08 09:45:47;;;;;;;22.57;16.40;;;;;;;21.98;62.58;101643.78;126712;1093;64434;-75
2021/06/08 09:48:14;;;;;;;23.23;16.67;;;;;;;21.89;61.63;101641.61;126417;1093;62813;-77
2021/06/08 09:50:49;;;;;;;25.70;17.70;;;;;;;21.85;62.68;101641.27;126788;1093;63009;-76
2021/06/08 09:53:28;;;;;;;29.73;19.13;;;;;;;21.80;62.66;101646.50;126814;1093;62964;-77
2021/06/08 09:56:05;;;;;;;30.17;18.80;;;;;;;21.98;63.93;101632.98;126838;1093;62216;-76
2021/06/08 09:58:35;;;;;;;29.90;18.83;;;;;;;22.16;62.43;101632.09;126715;1092;63053;-76
2021/06/08 10:01:19;;;;;;;21.07;14.13;;;;;;;22.28;62.25;101634.89;126665;1093;62190;-75
2021/06/08 10:03:58;;;;;;;30.53;20.50;;;;;;;22.30;62.17;101624.67;126723;1093;62948;-78
2021/06/08 10:06:34;;;;;;;21.47;16.50;;;;;;;22.26;61.95;101603.75;126791;1092;63919;-78
2021/06/08 10:09:01;;;;;;;14.97;11.97;;;;;;;22.64;60.72;101626.88;126833;1093;62790;-76
2021/06/08 10:11:32;;;;;;;16.53;12.17;;;;;;;22.89;60.34;101615.84;126810;1093;62757;-78
2021/06/08 10:14:11;;;;;;;16.87;13.47;;;;;;;23.22;59.76;101617.16;126779;1093;62922;-78
2021/06/08 10:16:39;;;;;;;15.43;11.63;;;;;;;23.52;57.88;101615.09;126735;1093;62582;-78
2021/06/08 10:19:10;;;;;;;18.57;11.80;;;;;;;23.69;57.25;101614.34;126723;1092;62878;-76
2021/06/08 10:21:37;;;;;;;14.77;11.03;;;;;;;23.91;55.16;101609.95;126728;1093;64250;-76
2021/06/08 10:24:11;;;;;;;23.20;15.90;;;;;;;24.00;55.48;101608.48;126607;1093;63889;-76
2021/06/08 10:26:40;;;;;;;;;;;;;;;24.12;55.46;101607.60;126770;1092;62207;-75
2021/06/08 10:29:10;;;;;;;20.47;14.93;;;;;;;24.21;54.92;101601.55;126452;1093;62360;-76
2021/06/08 10:31:40;;;;;;;18.63;15.10;;;;;;;24.17;54.54;101603.11;126541;1093;62519;-76
2021/06/08 10:34:27;;;;;;;27.50;17.10;;;;;;;24.31;54.27;101587.36;126777;1093;63150;-77
2021/06/08 10:36:57;;;;;;;18.77;13.20;;;;;;;24.46;53.37;101591.38;126767;1093;63088;-77
2021/06/08 10:39:26;;;;;;;11.03;7.77;;;;;;;24.57;51.96;101591.34;126369;1093;62233;-77
2021/06/08 10:41:55;;;;;;;15.87;13.37;;;;;;;24.41;53.07;101590.22;126599;1092;62932;-76
2021/06/08 10:44:25;;;;;;;18.63;13.23;;;;;;;24.55;53.22;101587.23;126847;1092;62740;-76
2021/06/08 10:47:02;;;;;;;14.30;11.95;;;;;;;24.62;52.63;101587.89;126772;1093;62527;-77
2021/06/08 10:49:35;;;;;;;14.47;11.57;;;;;;;24.62;53.17;101588.70;126492;1093;62765;-76
2021/06/08 10:52:07;;;;;;;12.47;8.47;;;;;;;24.81;51.92;101581.13;126558;1093;62952;-78
2021/06/08 10:54:47;;;;;;;14.00;10.17;;;;;;;25.02;51.51;101586.85;127162;1093;62438;-75
2021/06/08 10:57:16;;;;;;;15.03;11.90;;;;;;;25.21;53.08;101582.80;127836;1093;62615;-76
2021/06/08 10:59:51;;;;;;;12.87;9.13;;;;;;;25.25;50.57;101591.27;127699;1092;63089;-76
2021/06/08 11:02:40;;;;;;;13.50;9.37;;;;;;;25.35;51.59;101587.85;127719;1093;62260;-75
2021/06/08 11:05:08;;;;;;;10.00;8.27;;;;;;;25.50;50.08;101579.91;126835;1093;63383;-76
2021/06/08 11:07:44;;;;;;;10.40;8.87;;;;;;;25.57;50.33;101588.69;126296;1093;62967;-76
2021/06/08 11:10:26;;;;;;;12.60;9.07;;;;;;;25.59;49.59;101586.53;126398;1093;62935;-75
2021/06/08 11:13:09;;;;;;;10.73;8.07;;;;;;;25.54;49.16;101577.49;126408;1092;63000;-75
2021/06/08 11:15:41;;;;;;;11.37;8.83;;;;;;;25.47;47.99;101580.41;126280;1093;64494;-74
2021/06/08 11:18:17;;;;;;;9.00;6.97;;;;;;;25.42;50.19;101583.07;126345;1093;62948;-75